createdAt,value
2022-08-18T00:01:16.484Z,54.87
2022-08-18T00:03:55.640Z,58.97
2022-08-18T00:06:24.215Z,56.80
2022-08-18T00:08:55.258Z,56.33
2022-08-18T00:11:23.409Z,55.93
2022-08-18T00:13:50.039Z,57.50
2022-08-18T00:16:16.634Z,51.00
2022-08-18T00:18:43.261Z,64.17
2022-08-18T00:21:09.968Z,51.67
2022-08-18T00:23:38.515Z,52.83
2022-08-18T00:26:05.426Z,48.50
2022-08-18T00:28:32.070Z,54.30
2022-08-18T00:30:59.105Z,49.27
2022-08-18T00:33:25.764Z,49.10
2022-08-18T00:35:52.501Z,53.07
2022-08-18T00:38:24.786Z,52.33
2022-08-18T00:40:54.355Z,50.00
2022-08-18T00:43:35.036Z,52.30
2022-08-18T00:46:02.358Z,55.07
2022-08-18T00:48:29.165Z,56.63
2022-08-18T00:50:58.912Z,59.07
2022-08-18T00:53:34.742Z,55.93
2022-08-18T00:56:09.314Z,58.17
2022-08-18T00:58:44.362Z,57.07
2022-08-18T01:01:13.900Z,60.43
2022-08-18T01:03:43.743Z,52.77
2022-08-18T01:06:17.375Z,57.50
2022-08-18T01:08:44.272Z,58.90
2022-08-18T01:11:10.861Z,60.70
2022-08-18T01:13:39.316Z,59.97
2022-08-18T01:16:26.265Z,56.23
2022-08-18T01:19:12.173Z,57.97
2022-08-18T01:21:52.229Z,59.00
2022-08-18T01:24:46.216Z,55.17
2022-08-18T01:27:17.754Z,47.40
2022-08-18T01:29:45.941Z,55.30
2022-08-18T01:32:19.457Z,55.30
2022-08-18T01:34:48.208Z,57.77
2022-08-18T01:37:20.858Z,46.30
2022-08-18T01:41:24.295Z,60.03
2022-08-18T01:42:35.744Z,69.47
2022-08-18T01:45:04.545Z,67.17
2022-08-18T01:47:33.212Z,68.63
2022-08-18T01:50:15.745Z,69.37
2022-08-18T01:52:42.455Z,74.80
2022-08-18T01:55:09.765Z,53.37
2022-08-18T01:57:44.715Z,66.30
2022-08-18T02:00:14.402Z,68.67
2022-08-18T02:02:41.987Z,70.40
2022-08-18T02:05:18.181Z,31.90
2022-08-18T02:07:44.813Z,68.63
2022-08-18T02:10:12.615Z,42.83
2022-08-18T02:12:43.785Z,30.33
2022-08-18T02:15:12.113Z,27.00
2022-08-18T02:17:40.341Z,61.30
2022-08-18T02:20:08.568Z,66.13
2022-08-18T02:22:35.590Z,62.37
2022-08-18T02:25:02.226Z,61.27
2022-08-18T02:27:29.222Z,63.63
2022-08-18T02:29:59.519Z,71.37
2022-08-18T02:32:26.573Z,66.50
2022-08-18T02:34:56.037Z,75.43
2022-08-18T02:37:22.947Z,74.43
2022-08-18T02:39:49.963Z,39.07
2022-08-18T02:42:16.915Z,64.70
2022-08-18T02:44:43.993Z,36.43
2022-08-18T02:47:10.698Z,43.87
2022-08-18T02:49:37.302Z,47.37
2022-08-18T02:52:04.483Z,32.33
2022-08-18T02:54:31.131Z,65.73
2022-08-18T02:56:58.313Z,40.73
2022-08-18T02:59:27.487Z,40.10
2022-08-18T03:01:56.224Z,35.47
2022-08-18T03:04:29.426Z,37.50
2022-08-18T03:06:57.922Z,60.47
2022-08-18T03:09:24.567Z,40.97
2022-08-18T03:11:52.823Z,58.57
2022-08-18T03:14:19.585Z,54.80
2022-08-18T03:16:53.387Z,57.77
2022-08-18T03:19:22.437Z,62.70
2022-08-18T03:21:49.253Z,50.90
2022-08-18T03:24:22.798Z,63.30
2022-08-18T03:26:51.310Z,62.87
2022-08-18T03:29:18.140Z,40.07
2022-08-18T03:31:45.767Z,57.13
2022-08-18T03:34:12.696Z,56.80
2022-08-18T03:36:39.692Z,37.70
2022-08-18T03:39:10.180Z,44.33
2022-08-18T03:41:58.968Z,55.53
2022-08-18T03:44:27.975Z,45.43
2022-08-18T03:46:55.008Z,41.40
2022-08-18T03:49:21.715Z,27.10
2022-08-18T03:51:49.360Z,40.67
2022-08-18T03:54:18.250Z,52.90
2022-08-18T03:56:46.908Z,54.27
2022-08-18T03:59:17.905Z,55.07
2022-08-18T04:01:45.899Z,50.83
2022-08-18T04:04:15.880Z,48.30
2022-08-18T04:06:54.060Z,48.63
2022-08-18T04:09:21.941Z,47.63
2022-08-18T04:11:49.595Z,58.93
2022-08-18T04:14:19.456Z,55.30
2022-08-18T04:16:46.851Z,50.60
2022-08-18T04:19:14.168Z,33.23
2022-08-18T04:21:53.864Z,53.23
2022-08-18T04:24:20.737Z,61.73
2022-08-18T04:26:48.562Z,45.50
2022-08-18T04:29:18.334Z,61.07
2022-08-18T04:31:45.398Z,53.17
2022-08-18T04:34:12.795Z,45.27
2022-08-18T04:36:40.029Z,53.97
2022-08-18T04:39:09.134Z,55.00
2022-08-18T04:41:37.246Z,39.13
2022-08-18T04:44:07.342Z,44.97
2022-08-18T04:46:40.009Z,57.83
2022-08-18T04:49:09.094Z,58.80
2022-08-18T04:52:36.225Z,65.40
2022-08-18T04:54:24.750Z,56.60
2022-08-18T04:56:51.834Z,68.50
2022-08-18T04:59:18.920Z,64.43
2022-08-18T05:01:47.478Z,61.37
2022-08-18T05:04:16.399Z,62.10
2022-08-18T05:07:17.731Z,47.13
2022-08-18T05:09:43.161Z,61.27
2022-08-18T05:12:15.472Z,55.90
2022-08-18T05:14:46.425Z,68.93
2022-08-18T05:17:15.298Z,63.23
2022-08-18T05:19:44.353Z,53.63
2022-08-18T05:22:14.563Z,63.77
2022-08-18T05:24:42.684Z,65.83
2022-08-18T05:27:09.307Z,64.27
2022-08-18T05:29:36.721Z,49.63
2022-08-18T05:32:09.160Z,60.23
2022-08-18T05:34:35.981Z,52.40
2022-08-18T05:37:16.131Z,61.27
2022-08-18T05:39:58.415Z,59.80
2022-08-18T05:42:28.664Z,63.67
2022-08-18T05:44:56.134Z,70.53
2022-08-18T05:47:33.137Z,63.70
2022-08-18T05:50:26.091Z,64.93
2022-08-18T05:52:57.237Z,64.53
2022-08-18T05:55:52.910Z,63.70
2022-08-18T05:58:33.300Z,50.03
2022-08-18T06:01:13.620Z,58.43
2022-08-18T06:03:52.893Z,51.63
2022-08-18T06:06:25.104Z,61.77
2022-08-18T06:09:15.700Z,68.53
2022-08-18T06:11:43.250Z,64.93
2022-08-18T06:14:10.707Z,38.80
2022-08-18T06:16:47.310Z,59.23
2022-08-18T06:19:38.948Z,52.17
2022-08-18T06:22:31.273Z,50.27
2022-08-18T06:25:34.783Z,52.00
2022-08-18T06:28:14.064Z,41.43
2022-08-18T06:30:50.213Z,53.37
2022-08-18T06:33:17.222Z,69.30
2022-08-18T06:36:13.039Z,68.43
2022-08-18T06:39:04.906Z,64.67
2022-08-18T06:41:42.013Z,74.00
2022-08-18T06:44:19.297Z,58.77
2022-08-18T06:46:54.338Z,62.30
2022-08-18T06:49:46.565Z,69.23
2022-08-18T06:52:33.839Z,66.00
2022-08-18T06:55:05.429Z,45.20
2022-08-18T06:57:35.273Z,72.60
2022-08-18T07:00:18.163Z,67.17
2022-08-18T07:02:57.501Z,64.27
2022-08-18T07:05:29.302Z,67.17
2022-08-18T07:08:14.413Z,69.23
2022-08-18T07:10:46.639Z,47.33
2022-08-18T07:13:13.194Z,49.83
2022-08-18T07:15:40.712Z,62.40
2022-08-18T07:18:09.124Z,59.10
2022-08-18T07:20:43.459Z,65.33
2022-08-18T07:23:33.688Z,51.43
2022-08-18T07:26:15.783Z,73.23
2022-08-18T07:28:46.616Z,55.93
2022-08-18T07:31:24.768Z,53.63
2022-08-18T07:34:25.418Z,46.70
2022-08-18T07:37:04.285Z,61.77
2022-08-18T07:40:00.093Z,46.63
2022-08-18T07:43:01.968Z,54.47
2022-08-18T07:45:44.949Z,34.97
2022-08-18T07:48:37.612Z,36.90
2022-08-18T07:51:19.584Z,36.63
2022-08-18T07:54:45.015Z,27.60
2022-08-18T07:57:42.068Z,53.53
2022-08-18T08:00:35.134Z,54.27
2022-08-18T08:03:38.756Z,30.47
2022-08-18T08:06:28.675Z,32.60
2022-08-18T08:09:14.852Z,43.57
2022-08-18T08:11:58.450Z,29.77
2022-08-18T08:14:41.333Z,25.17
2022-08-18T08:17:24.359Z,52.03
2022-08-18T08:20:08.312Z,47.37
2022-08-18T08:22:52.700Z,40.10
2022-08-18T08:25:46.298Z,35.90
2022-08-18T08:28:44.044Z,35.00
2022-08-18T08:31:37.249Z,29.80
2022-08-18T08:34:27.438Z,30.73
2022-08-18T08:37:01.134Z,27.67
2022-08-18T08:39:45.395Z,24.27
2022-08-18T08:42:31.713Z,20.07
2022-08-18T08:45:11.328Z,28.17
2022-08-18T08:47:44.315Z,25.87
2022-08-18T08:50:17.851Z,22.20
2022-08-18T08:53:05.602Z,25.83
2022-08-18T08:55:37.112Z,25.10
2022-08-18T08:58:26.300Z,26.13
2022-08-18T09:00:53.972Z,23.13
2022-08-18T09:03:39.849Z,16.17
2022-08-18T09:06:12.649Z,19.63
2022-08-18T09:09:07.829Z,23.30
2022-08-18T09:12:07.899Z,21.77
2022-08-18T09:14:59.162Z,17.57
2022-08-18T09:17:48.377Z,16.77
2022-08-18T09:20:36.017Z,19.30
2022-08-18T09:23:17.180Z,18.03
2022-08-18T09:25:44.259Z,20.47
2022-08-18T09:28:42.076Z,19.43
2022-08-18T09:31:09.179Z,19.07
2022-08-18T09:33:40.403Z,19.77
2022-08-18T09:36:28.133Z,25.77
2022-08-18T09:39:27.257Z,16.40
2022-08-18T09:42:03.257Z,13.13
2022-08-18T09:44:48.400Z,12.77
2022-08-18T09:47:21.731Z,11.80
2022-08-18T09:50:29.846Z,16.70
2022-08-18T09:58:58.926Z,11.13
2022-08-18T10:01:36.359Z,15.40
2022-08-18T10:04:14.932Z,11.87
2022-08-18T10:09:44.943Z,7.63
2022-08-18T10:12:35.878Z,12.27
2022-08-18T10:18:28.417Z,12.80
2022-08-18T10:21:12.034Z,10.10
2022-08-18T10:24:02.797Z,13.90
2022-08-18T10:26:37.397Z,9.53
2022-08-18T10:29:12.113Z,9.27
2022-08-18T10:31:57.613Z,9.77
2022-08-18T10:34:52.902Z,14.43
2022-08-18T10:37:28.316Z,9.53
2022-08-18T10:39:59.641Z,9.30
2022-08-18T10:42:49.772Z,12.00
2022-08-18T10:45:29.988Z,12.40
2022-08-18T10:48:24.300Z,14.77
2022-08-18T10:51:11.327Z,7.90
2022-08-18T10:53:52.894Z,8.23
2022-08-18T10:56:45.470Z,14.13
2022-08-18T10:59:50.458Z,6.60
2022-08-18T11:02:24.790Z,12.90
2022-08-18T11:04:58.707Z,7.73
2022-08-18T11:07:30.853Z,8.60
2022-08-18T11:10:29.237Z,13.20
2022-08-18T11:13:10.058Z,11.43
2022-08-18T11:15:55.696Z,9.20
2022-08-18T11:18:24.112Z,9.97
2022-08-18T11:20:51.944Z,7.37
2022-08-18T11:23:18.613Z,10.87
2022-08-18T11:25:45.419Z,10.40
2022-08-18T11:28:21.312Z,10.17
2022-08-18T11:30:58.095Z,8.87
2022-08-18T11:33:25.053Z,8.70
2022-08-18T11:35:59.307Z,7.60
2022-08-18T11:38:31.517Z,5.23
2022-08-18T11:41:19.730Z,11.70
2022-08-18T11:43:48.386Z,10.50
2022-08-18T11:46:28.190Z,11.23
2022-08-18T11:49:13.897Z,7.93
2022-08-18T11:51:55.818Z,12.77
2022-08-18T11:54:33.472Z,11.27
2022-08-18T11:57:42.805Z,10.50
2022-08-18T12:00:43.092Z,10.27
2022-08-18T12:03:38.294Z,11.63
2022-08-18T12:06:26.939Z,10.43
2022-08-18T12:09:30.616Z,14.03
2022-08-18T12:12:28.127Z,12.50
2022-08-18T12:15:26.103Z,12.97
2022-08-18T12:18:03.450Z,11.43
2022-08-18T12:20:30.469Z,12.47
2022-08-18T12:22:58.180Z,11.83
2022-08-18T12:25:25.730Z,16.07
2022-08-18T12:27:54.050Z,14.23
2022-08-18T12:30:20.708Z,13.53
2022-08-18T12:32:50.587Z,13.17
2022-08-18T12:35:22.094Z,13.33
2022-08-18T12:38:13.437Z,13.83
2022-08-18T12:40:36.317Z,10.70
2022-08-18T12:43:03.595Z,9.00
2022-08-18T12:45:32.691Z,10.47
2022-08-18T12:48:04.009Z,9.23
2022-08-18T12:50:32.790Z,9.67
2022-08-18T12:53:01.843Z,10.80
2022-08-18T12:55:34.730Z,8.60
2022-08-18T12:58:01.749Z,7.57
2022-08-18T13:03:15.087Z,7.03
2022-08-18T13:05:42.724Z,7.53
2022-08-18T13:08:30.568Z,7.63
2022-08-18T13:11:14.750Z,9.70
2022-08-18T13:13:53.053Z,7.10
2022-08-18T13:16:30.589Z,7.07
2022-08-18T13:18:57.630Z,7.67
2022-08-18T13:21:24.363Z,9.70
2022-08-18T13:23:51.532Z,7.70
2022-08-18T13:26:33.556Z,6.80
2022-08-18T13:29:00.330Z,6.77
2022-08-18T13:31:27.874Z,4.77
2022-08-18T13:34:00.680Z,8.13
2022-08-18T13:36:46.240Z,8.37
2022-08-18T13:39:16.964Z,9.40
2022-08-18T13:41:45.613Z,6.77
2022-08-18T13:44:13.308Z,9.97
2022-08-18T13:46:47.192Z,6.87
2022-08-18T13:49:23.743Z,5.57
2022-08-18T13:51:59.185Z,4.63
2022-08-18T13:54:35.370Z,5.30
2022-08-18T13:57:03.277Z,6.73
2022-08-18T13:59:32.909Z,5.90
2022-08-18T14:02:01.767Z,5.37
2022-08-18T14:04:28.878Z,4.83
2022-08-18T14:06:57.212Z,5.17
2022-08-18T14:09:27.750Z,5.60
2022-08-18T14:12:15.939Z,5.03
2022-08-18T14:14:49.873Z,6.17
2022-08-18T14:17:19.806Z,6.10
2022-08-18T14:20:10.488Z,5.10
2022-08-18T14:23:00.784Z,6.00
2022-08-18T14:25:46.613Z,6.63
2022-08-18T14:28:13.617Z,8.33
2022-08-18T14:30:54.267Z,4.57
2022-08-18T14:33:29.201Z,4.77
2022-08-18T14:36:10.025Z,5.87
2022-08-18T14:38:36.993Z,5.00
2022-08-18T14:41:07.607Z,6.70
2022-08-18T14:43:51.776Z,4.50
2022-08-18T14:46:23.189Z,6.30
2022-08-18T14:48:57.227Z,5.37
2022-08-18T14:51:27.240Z,5.53
2022-08-18T14:53:55.694Z,5.07
2022-08-18T14:56:23.403Z,5.30
2022-08-18T14:58:54.994Z,8.87
2022-08-18T15:01:22.946Z,6.27
2022-08-18T15:03:49.777Z,5.27
2022-08-18T15:06:17.025Z,5.27
2022-08-18T15:08:49.446Z,4.43
2022-08-18T15:11:16.703Z,5.03
2022-08-18T15:13:45.997Z,4.33
2022-08-18T15:16:15.079Z,5.23
2022-08-18T15:18:43.603Z,4.80
2022-08-18T15:21:35.391Z,9.47
2022-08-18T15:24:25.086Z,4.70
2022-08-18T15:26:58.006Z,5.77
2022-08-18T15:29:28.058Z,4.40
2022-08-18T15:32:01.960Z,4.73
2022-08-18T15:34:46.227Z,4.90
2022-08-18T15:37:15.835Z,5.13
2022-08-18T15:39:46.307Z,4.90
2022-08-18T15:42:19.104Z,4.43
2022-08-18T15:44:47.204Z,4.47
2022-08-18T15:47:20.826Z,4.20
2022-08-18T15:49:48.033Z,4.50
2022-08-18T15:52:15.133Z,4.63
2022-08-18T15:54:44.509Z,4.87
2022-08-18T15:57:39.171Z,5.93
2022-08-18T16:00:05.053Z,3.77
2022-08-18T16:02:31.721Z,3.97
2022-08-18T16:05:10.257Z,4.20
2022-08-18T16:07:41.280Z,6.10
2022-08-18T16:10:21.937Z,4.37
2022-08-18T16:12:49.509Z,4.90
2022-08-18T16:15:21.389Z,4.17
2022-08-18T16:17:49.880Z,3.93
2022-08-18T16:20:18.642Z,5.10
2022-08-18T16:22:47.401Z,3.30
2022-08-18T16:25:16.366Z,7.70
2022-08-18T16:27:43.867Z,5.27
2022-08-18T16:30:16.452Z,3.53
2022-08-18T16:32:43.467Z,3.30
2022-08-18T16:35:11.046Z,4.00
2022-08-18T16:37:37.965Z,3.80
2022-08-18T16:40:05.401Z,5.17
2022-08-18T16:42:34.901Z,3.80
2022-08-18T16:45:03.806Z,4.53
2022-08-18T16:47:38.807Z,3.60
2022-08-18T16:50:11.614Z,5.33
2022-08-18T16:52:39.173Z,4.23
2022-08-18T16:55:09.159Z,3.80
2022-08-18T16:58:04.674Z,4.07
2022-08-18T17:00:55.118Z,3.17
2022-08-18T17:03:42.053Z,3.40
2022-08-18T17:06:12.228Z,4.00
2022-08-18T17:08:40.041Z,5.37
2022-08-18T17:11:10.468Z,3.30
2022-08-18T17:13:39.563Z,3.20
2022-08-18T17:16:08.041Z,4.13
2022-08-18T17:18:36.031Z,4.40
2022-08-18T17:21:04.535Z,3.83
2022-08-18T17:23:32.185Z,3.70
2022-08-18T17:25:59.677Z,6.67
2022-08-18T17:28:35.240Z,4.63
2022-08-18T17:31:02.136Z,4.50
2022-08-18T17:33:35.666Z,4.73
2022-08-18T17:36:08.156Z,4.37
2022-08-18T17:38:43.665Z,6.77
2022-08-18T17:41:11.900Z,5.80
2022-08-18T17:46:17.675Z,7.93
2022-08-18T17:49:12.559Z,4.90
2022-08-18T17:51:45.234Z,3.23
2022-08-18T17:54:36.333Z,5.27
2022-08-18T17:57:10.512Z,4.27
2022-08-18T18:00:11.421Z,5.30
2022-08-18T18:02:40.045Z,3.90
2022-08-18T18:05:14.205Z,4.17
2022-08-18T18:07:52.739Z,3.70
2022-08-18T18:10:27.883Z,4.57
2022-08-18T18:13:08.629Z,5.53
2022-08-18T18:15:40.828Z,3.70
2022-08-18T18:18:32.103Z,4.73
2022-08-18T18:21:06.023Z,3.43
2022-08-18T18:23:41.247Z,4.33
2022-08-18T18:26:29.337Z,3.53
2022-08-18T18:29:13.417Z,3.20
2022-08-18T18:31:44.349Z,3.20
2022-08-18T18:34:28.197Z,6.67
2022-08-18T18:36:56.035Z,3.27
2022-08-18T18:39:33.129Z,2.90
2022-08-18T18:42:19.283Z,3.20
2022-08-18T18:44:58.362Z,4.00
2022-08-18T18:48:03.562Z,3.63
2022-08-18T18:50:55.602Z,3.53
2022-08-18T18:53:51.747Z,3.40
2022-08-18T18:56:28.570Z,3.77
2022-08-18T18:59:35.722Z,3.70
2022-08-18T19:02:34.693Z,4.30
2022-08-18T19:05:26.892Z,4.43
2022-08-18T19:08:00.960Z,3.90
2022-08-18T19:10:46.071Z,4.33
2022-08-18T19:13:32.838Z,3.97
2022-08-18T19:16:45.089Z,5.03
2022-08-18T19:19:36.997Z,6.23
2022-08-18T19:22:18.882Z,4.80
2022-08-18T19:24:57.898Z,6.20
2022-08-18T19:27:30.884Z,3.13
2022-08-18T19:30:04.014Z,3.10
2022-08-18T19:32:36.881Z,2.87
2022-08-18T19:35:11.916Z,3.37
2022-08-18T19:38:22.540Z,5.60
2022-08-18T19:41:07.938Z,3.90
2022-08-18T19:43:56.451Z,3.20
2022-08-18T19:46:39.463Z,5.33
2022-08-18T19:49:16.505Z,2.70
2022-08-18T19:51:44.523Z,3.30
2022-08-18T19:54:41.760Z,3.87
2022-08-18T19:57:53.865Z,4.37
2022-08-18T20:00:51.161Z,4.50
2022-08-18T20:03:29.729Z,4.00
2022-08-18T20:06:33.947Z,3.37
2022-08-18T20:09:26.187Z,3.80
2022-08-18T20:12:08.476Z,3.73
2022-08-18T20:14:39.247Z,3.97
2022-08-18T20:17:16.759Z,3.50
2022-08-18T20:19:57.294Z,4.70
2022-08-18T20:22:24.574Z,3.87
2022-08-18T20:25:08.199Z,3.77
2022-08-18T20:27:43.055Z,3.63
2022-08-18T20:30:53.364Z,3.70
2022-08-18T20:33:30.733Z,5.50
2022-08-18T20:36:16.181Z,3.60
2022-08-18T20:38:49.117Z,3.10
2022-08-18T20:41:41.979Z,3.90
2022-08-18T20:44:29.066Z,4.00
2022-08-18T20:47:31.348Z,3.60
2022-08-18T20:50:19.739Z,3.87
2022-08-18T20:53:08.698Z,4.63
2022-08-18T20:55:36.146Z,5.30
2022-08-18T20:58:20.451Z,4.50
2022-08-18T21:00:56.800Z,4.87
2022-08-18T21:03:35.604Z,5.77
2022-08-18T21:06:02.794Z,5.50
2022-08-18T21:08:31.670Z,6.40
2022-08-18T21:11:02.420Z,4.90
2022-08-18T21:13:41.231Z,5.07
2022-08-18T21:16:38.635Z,4.87
2022-08-18T21:19:13.605Z,5.17
2022-08-18T21:21:45.609Z,4.83
2022-08-18T21:24:33.792Z,5.87
2022-08-18T21:27:26.127Z,4.70
2022-08-18T21:30:19.651Z,5.13
2022-08-18T21:32:47.994Z,6.00
2022-08-18T21:35:31.600Z,4.90
2022-08-18T21:38:12.650Z,6.20
2022-08-18T21:40:48.559Z,4.27
2022-08-18T21:43:40.173Z,4.77
2022-08-18T21:46:08.895Z,4.90
2022-08-18T21:48:49.175Z,7.67
2022-08-18T21:51:25.079Z,4.93
2022-08-18T21:53:53.494Z,5.83
2022-08-18T21:56:29.216Z,6.20
2022-08-18T21:59:14.387Z,5.87
2022-08-18T22:01:50.356Z,6.43
2022-08-18T22:04:45.074Z,5.63
2022-08-18T22:07:34.168Z,6.60
2022-08-18T22:10:37.048Z,7.40
2022-08-18T22:13:22.469Z,8.13
2022-08-18T22:15:50.429Z,9.50
2022-08-18T22:18:17.742Z,5.40
2022-08-18T22:20:44.270Z,7.60
2022-08-18T22:23:32.281Z,11.80
2022-08-18T22:26:27.210Z,6.40
2022-08-18T22:29:20.909Z,6.80
2022-08-18T22:31:50.113Z,8.90
2022-08-18T22:34:27.825Z,6.77
2022-08-18T22:37:13.269Z,7.10
2022-08-18T22:39:55.631Z,10.00
2022-08-18T22:42:29.261Z,8.47
2022-08-18T22:45:00.124Z,5.70
2022-08-18T22:47:29.491Z,6.70
2022-08-18T22:49:56.466Z,5.13
2022-08-18T22:52:36.978Z,11.43
2022-08-18T22:55:08.171Z,5.60
2022-08-18T22:57:37.421Z,7.90
2022-08-18T23:00:08.706Z,6.33
2022-08-18T23:02:37.073Z,8.00
2022-08-18T23:05:05.142Z,6.60
2022-08-18T23:07:32.436Z,6.17
2022-08-18T23:09:59.288Z,8.63
2022-08-18T23:12:26.377Z,5.63
2022-08-18T23:14:53.408Z,5.70
2022-08-18T23:17:21.399Z,6.60
2022-08-18T23:19:48.472Z,6.93
2022-08-18T23:22:19.255Z,7.20
2022-08-18T23:24:45.859Z,7.97
2022-08-18T23:27:12.441Z,7.37
2022-08-18T23:29:41.090Z,6.43
2022-08-18T23:32:07.742Z,8.70
2022-08-18T23:34:35.569Z,7.13
2022-08-18T23:37:03.384Z,7.20
2022-08-18T23:39:33.076Z,6.20
2022-08-18T23:42:00.758Z,6.00
2022-08-18T23:44:28.168Z,5.67
2022-08-18T23:46:59.783Z,7.57
2022-08-18T23:49:28.467Z,6.13
2022-08-18T23:51:58.008Z,6.57
2022-08-18T23:54:29.061Z,4.80
2022-08-18T23:56:56.172Z,5.50
2022-08-18T23:59:24.095Z,10.10
